createdAt,value
2022-08-12T00:00:08.957Z,99.90
2022-08-12T00:02:55.106Z,99.90
2022-08-12T00:05:59.701Z,99.90
2022-08-12T00:08:57.491Z,99.90
2022-08-12T00:11:44.700Z,99.90
2022-08-12T00:14:32.041Z,99.90
2022-08-12T00:17:18.729Z,99.90
2022-08-12T00:20:05.093Z,99.90
2022-08-12T00:22:59.876Z,99.90
2022-08-12T00:26:21.474Z,99.90
2022-08-12T00:29:11.617Z,99.90
2022-08-12T00:32:00.612Z,99.90
2022-08-12T00:34:49.194Z,99.90
2022-08-12T00:37:36.794Z,99.90
2022-08-12T00:40:24.474Z,99.90
2022-08-12T00:42:54.260Z,99.90
2022-08-12T00:45:21.757Z,99.90
2022-08-12T00:48:15.443Z,99.90
2022-08-12T00:50:42.930Z,99.90
2022-08-12T00:53:10.704Z,99.90
2022-08-12T00:55:44.091Z,99.90
2022-08-12T00:58:14.340Z,99.90
2022-08-12T01:00:43.260Z,99.90
2022-08-12T01:03:15.615Z,99.90
2022-08-12T01:06:03.639Z,99.90
2022-08-12T01:08:49.681Z,99.90
2022-08-12T01:11:31.693Z,99.90
2022-08-12T01:14:01.482Z,99.90
2022-08-12T01:16:29.805Z,99.90
2022-08-12T01:18:58.396Z,99.90
2022-08-12T01:21:48.505Z,99.90
2022-08-12T01:24:49.848Z,99.90
2022-08-12T01:27:32.574Z,99.90
2022-08-12T01:30:01.696Z,99.90
2022-08-12T01:32:30.971Z,99.90
2022-08-12T01:35:07.644Z,99.90
2022-08-12T01:38:13.560Z,99.90
2022-08-12T01:40:47.125Z,99.90
2022-08-12T01:43:21.153Z,99.90
2022-08-12T01:46:07.459Z,99.90
2022-08-12T01:49:11.580Z,99.90
2022-08-12T01:52:20.744Z,99.90
2022-08-12T01:54:38.648Z,99.90
2022-08-12T01:57:58.827Z,99.90
2022-08-12T02:00:19.129Z,99.90
2022-08-12T02:03:20.143Z,99.90
2022-08-12T02:06:29.030Z,99.90
2022-08-12T02:09:19.143Z,99.90
2022-08-12T02:11:59.172Z,99.90
2022-08-12T02:14:40.613Z,99.90
2022-08-12T02:17:54.747Z,99.90
2022-08-12T02:20:17.224Z,99.90
2022-08-12T02:22:47.275Z,99.90
2022-08-12T02:25:16.778Z,99.90
2022-08-12T02:27:52.668Z,99.90
2022-08-12T02:30:22.751Z,99.90
2022-08-12T02:32:52.052Z,99.90
2022-08-12T02:35:24.530Z,99.90
2022-08-12T02:37:58.930Z,99.90
2022-08-12T02:40:28.348Z,99.90
2022-08-12T02:43:12.574Z,99.90
2022-08-12T02:45:57.444Z,99.90
2022-08-12T02:48:48.787Z,99.90
2022-08-12T02:51:29.414Z,99.90
2022-08-12T02:54:04.271Z,99.90
2022-08-12T02:56:33.317Z,99.90
2022-08-12T02:59:01.337Z,99.90
2022-08-12T03:01:35.247Z,99.90
2022-08-12T03:04:07.202Z,99.90
2022-08-12T03:07:02.234Z,99.90
2022-08-12T03:09:48.330Z,99.90
2022-08-12T03:12:24.496Z,99.90
2022-08-12T03:14:53.603Z,99.90
2022-08-12T03:17:33.744Z,99.90
2022-08-12T03:20:09.266Z,99.90
2022-08-12T03:22:42.325Z,99.90
2022-08-12T03:25:25.019Z,99.90
2022-08-12T03:27:57.884Z,99.90
2022-08-12T03:30:28.215Z,99.90
2022-08-12T03:32:57.251Z,99.90
2022-08-12T03:35:40.287Z,99.90
2022-08-12T03:38:12.220Z,99.90
2022-08-12T03:41:17.937Z,99.90
2022-08-12T03:44:25.790Z,99.90
2022-08-12T03:47:22.883Z,99.90
2022-08-12T03:50:10.983Z,99.90
2022-08-12T03:52:56.908Z,99.90
2022-08-12T03:55:42.650Z,99.90
2022-08-12T03:58:28.718Z,99.90
2022-08-12T04:00:56.493Z,99.90
2022-08-12T04:03:43.289Z,99.90
2022-08-12T04:06:10.839Z,99.90
2022-08-12T04:08:39.789Z,99.90
2022-08-12T04:11:29.173Z,99.90
2022-08-12T04:14:20.558Z,99.90
2022-08-12T04:16:51.279Z,99.90
2022-08-12T04:19:19.633Z,99.90
2022-08-12T04:22:01.734Z,99.90
2022-08-12T04:24:34.952Z,99.90
2022-08-12T04:27:09.529Z,99.90
2022-08-12T04:30:29.821Z,99.90
2022-08-12T04:32:28.106Z,99.90
2022-08-12T04:34:56.383Z,99.90
2022-08-12T04:37:23.682Z,99.90
2022-08-12T04:39:52.405Z,99.90
2022-08-12T04:42:20.314Z,99.90
2022-08-12T04:44:48.397Z,99.90
2022-08-12T04:47:16.860Z,99.90
2022-08-12T04:49:46.071Z,99.90
2022-08-12T04:52:14.446Z,99.90
2022-08-12T04:54:43.856Z,99.90
2022-08-12T04:57:13.768Z,99.90
2022-08-12T04:59:48.215Z,99.90
2022-08-12T05:02:21.818Z,99.90
2022-08-12T05:04:52.220Z,99.90
2022-08-12T05:07:20.816Z,99.90
2022-08-12T05:10:01.921Z,99.90
2022-08-12T05:12:41.350Z,99.90
2022-08-12T05:15:19.258Z,99.90
2022-08-12T05:17:56.043Z,99.90
2022-08-12T05:20:26.070Z,99.90
2022-08-12T05:23:16.817Z,99.90
2022-08-12T05:30:07.559Z,99.90
2022-08-12T05:32:20.415Z,99.90
2022-08-12T05:34:48.467Z,99.90
2022-08-12T05:37:17.164Z,99.90
2022-08-12T05:39:44.420Z,99.90
2022-08-12T05:42:11.718Z,99.90
2022-08-12T05:44:39.139Z,99.90
2022-08-12T05:47:07.111Z,99.90
2022-08-12T05:49:35.087Z,99.90
2022-08-12T05:52:02.787Z,99.90
2022-08-12T05:54:47.654Z,99.90
2022-08-12T05:57:17.774Z,99.90
2022-08-12T05:59:45.195Z,99.90
2022-08-12T06:02:15.651Z,99.90
2022-08-12T06:05:02.431Z,99.90
2022-08-12T06:10:54.291Z,99.90
2022-08-12T06:21:43.332Z,99.90
2022-08-12T06:25:00.573Z,99.90
2022-08-12T06:28:07.523Z,99.90
2022-08-12T06:35:25.620Z,99.90
2022-08-12T06:37:27.537Z,99.90
2022-08-12T06:40:01.615Z,99.90
2022-08-12T06:49:19.086Z,99.90
2022-08-12T06:57:02.589Z,99.90
2022-08-12T06:59:27.060Z,99.30
2022-08-12T07:06:10.736Z,98.50
2022-08-12T07:09:16.350Z,98.50
2022-08-12T07:20:51.835Z,98.00
2022-08-12T07:27:58.513Z,96.70
2022-08-12T07:45:17.156Z,94.70
2022-08-12T07:52:31.026Z,95.00
2022-08-12T08:04:05.328Z,94.40
2022-08-12T08:06:33.460Z,94.20
2022-08-12T08:10:40.875Z,93.80
2022-08-12T08:24:47.160Z,93.80
2022-08-12T08:27:35.488Z,93.70
2022-08-12T08:30:32.549Z,93.80
2022-08-12T08:33:01.814Z,93.90
2022-08-12T08:35:47.656Z,94.10
2022-08-12T08:38:32.119Z,93.80
2022-08-12T08:42:16.663Z,93.90
2022-08-12T08:48:59.587Z,94.00
2022-08-12T08:52:39.652Z,93.90
2022-08-12T08:55:18.777Z,93.70
2022-08-12T08:57:54.852Z,94.00
2022-08-12T09:00:22.601Z,93.50
2022-08-12T09:04:21.209Z,93.60
2022-08-12T09:06:41.991Z,93.70
2022-08-12T09:09:23.779Z,93.50
2022-08-12T09:12:36.178Z,93.20
2022-08-12T09:15:16.914Z,93.30
2022-08-12T09:21:13.939Z,93.60
2022-08-12T09:24:00.491Z,93.30
2022-08-12T09:27:19.295Z,93.30
2022-08-12T09:30:10.472Z,93.00
2022-08-12T09:33:05.288Z,92.60
2022-08-12T09:35:44.481Z,92.90
2022-08-12T09:38:28.403Z,93.10
2022-08-12T09:42:07.348Z,93.00
2022-08-12T09:45:19.085Z,93.00
2022-08-12T09:48:20.457Z,92.90
2022-08-12T09:50:55.513Z,92.70
2022-08-12T09:54:08.893Z,92.90
2022-08-12T09:58:08.071Z,92.50
2022-08-12T10:00:16.324Z,92.50
2022-08-12T10:03:32.632Z,92.20
2022-08-12T10:06:53.854Z,91.20
2022-08-12T10:17:31.104Z,90.80
2022-08-12T10:20:24.483Z,91.30
2022-08-12T10:30:39.406Z,89.10
2022-08-12T10:33:18.834Z,90.10
2022-08-12T10:36:12.435Z,88.80
2022-08-12T10:38:57.242Z,89.80
2022-08-12T10:41:58.011Z,90.40
2022-08-12T10:44:43.957Z,90.30
2022-08-12T10:47:26.062Z,90.00
2022-08-12T10:50:04.869Z,88.70
2022-08-12T10:52:48.853Z,87.70
2022-08-12T11:07:07.813Z,87.10
2022-08-12T11:10:04.184Z,88.10
2022-08-12T11:12:55.657Z,87.60
2022-08-12T11:16:02.537Z,88.90
2022-08-12T11:18:24.318Z,89.70
2022-08-12T11:20:57.852Z,90.20
2022-08-12T11:23:36.628Z,89.40
2022-08-12T11:26:07.259Z,89.60
2022-08-12T11:28:36.944Z,90.20
2022-08-12T11:31:11.924Z,89.30
2022-08-12T11:34:05.232Z,88.90
2022-08-12T11:36:28.996Z,88.90
2022-08-12T11:38:56.280Z,89.90
2022-08-12T11:41:31.894Z,89.20
2022-08-12T11:44:34.963Z,90.40
2022-08-12T11:46:54.468Z,90.00
2022-08-12T11:49:32.074Z,90.50
2022-08-12T11:52:27.246Z,90.20
2022-08-12T11:54:54.275Z,90.10
2022-08-12T11:58:07.315Z,90.20
2022-08-12T12:02:57.487Z,90.10
2022-08-12T12:05:28.543Z,89.50
2022-08-12T12:08:37.219Z,90.20
2022-08-12T12:10:54.453Z,90.60
2022-08-12T12:14:08.554Z,91.00
2022-08-12T12:16:11.204Z,91.00
2022-08-12T12:18:40.497Z,90.50
2022-08-12T12:21:47.606Z,90.60
2022-08-12T12:24:13.947Z,90.10
2022-08-12T12:26:59.527Z,90.50
2022-08-12T12:30:17.892Z,90.30
2022-08-12T12:32:29.409Z,90.40
2022-08-12T12:35:14.333Z,90.30
2022-08-12T12:38:05.636Z,90.40
2022-08-12T12:40:46.147Z,89.60
2022-08-12T12:43:42.374Z,89.80
2022-08-12T12:46:06.200Z,90.20
2022-08-12T12:48:36.242Z,90.00
2022-08-12T12:51:48.988Z,89.90
2022-08-12T12:54:10.031Z,89.40
2022-08-12T12:56:40.556Z,90.00
2022-08-12T12:59:54.624Z,90.00
2022-08-12T13:01:55.900Z,89.00
2022-08-12T13:04:24.625Z,89.40
2022-08-12T13:06:52.318Z,89.50
2022-08-12T13:09:22.358Z,89.20
2022-08-12T13:11:52.999Z,88.60
2022-08-12T13:14:33.197Z,88.80
2022-08-12T13:17:03.331Z,88.20
2022-08-12T13:19:43.404Z,88.40
2022-08-12T13:22:18.450Z,88.00
2022-08-12T13:24:55.947Z,88.20
2022-08-12T13:27:34.965Z,88.00
2022-08-12T13:30:12.378Z,87.80
2022-08-12T13:32:56.804Z,87.80
2022-08-12T13:36:05.986Z,87.50
2022-08-12T13:38:38.699Z,87.80
2022-08-12T13:41:11.027Z,87.70
2022-08-12T13:43:41.022Z,87.70
2022-08-12T13:46:13.435Z,86.90
2022-08-12T13:48:45.292Z,86.40
2022-08-12T13:51:14.245Z,87.00
2022-08-12T13:53:57.764Z,87.40
2022-08-12T13:56:34.771Z,88.20
2022-08-12T13:59:05.541Z,87.50
2022-08-12T14:01:40.652Z,86.70
2022-08-12T14:04:11.554Z,87.30
2022-08-12T14:06:40.673Z,87.00
2022-08-12T14:09:17.601Z,86.70
2022-08-12T14:11:58.980Z,86.90
2022-08-12T14:14:31.275Z,88.10
2022-08-12T14:17:05.450Z,87.40
2022-08-12T14:19:38.031Z,87.60
2022-08-12T14:22:14.480Z,87.40
2022-08-12T14:24:42.836Z,87.20
2022-08-12T14:27:12.489Z,86.90
2022-08-12T14:30:04.412Z,86.90
2022-08-12T14:32:36.339Z,86.80
2022-08-12T14:35:09.051Z,86.90
2022-08-12T14:37:54.935Z,87.00
2022-08-12T14:40:28.004Z,87.20
2022-08-12T14:42:57.268Z,87.80
2022-08-12T14:45:44.836Z,87.60
2022-08-12T14:48:36.589Z,87.80
2022-08-12T14:52:57.718Z,88.20
2022-08-12T14:55:10.878Z,87.90
2022-08-12T14:59:57.921Z,87.50
2022-08-12T15:02:42.389Z,87.60
2022-08-12T15:05:09.803Z,87.50
2022-08-12T15:08:04.876Z,88.00
2022-08-12T15:10:36.923Z,88.30
2022-08-12T15:13:23.303Z,88.70
2022-08-12T15:15:52.695Z,88.10
2022-08-12T15:18:22.890Z,87.70
2022-08-12T15:21:11.680Z,88.30
2022-08-12T15:23:45.493Z,90.00
2022-08-12T15:26:27.397Z,90.20
2022-08-12T15:29:02.402Z,91.10
2022-08-12T15:32:00.506Z,91.50
2022-08-12T15:34:21.335Z,90.60
2022-08-12T15:36:55.152Z,90.60
2022-08-12T15:39:23.190Z,90.40
2022-08-12T15:42:54.872Z,90.20
2022-08-12T15:45:32.100Z,89.40
2022-08-12T15:48:57.559Z,89.40
2022-08-12T15:51:57.730Z,90.30
2022-08-12T15:54:33.318Z,90.50
2022-08-12T15:57:10.456Z,91.60
2022-08-12T16:00:00.564Z,92.30
2022-08-12T16:02:58.742Z,92.90
2022-08-12T16:06:12.715Z,93.70
2022-08-12T16:08:27.254Z,94.50
2022-08-12T16:10:56.718Z,96.00
2022-08-12T16:13:35.453Z,97.60
2022-08-12T16:16:22.554Z,99.90
2022-08-12T16:18:57.353Z,99.90
2022-08-12T16:21:52.274Z,99.90
2022-08-12T16:24:20.611Z,99.90
2022-08-12T16:26:51.291Z,99.90
2022-08-12T16:29:53.094Z,99.90
2022-08-12T16:32:23.976Z,99.90
2022-08-12T16:34:55.042Z,99.90
2022-08-12T16:38:04.761Z,99.90
2022-08-12T16:40:12.280Z,99.90
2022-08-12T16:42:42.186Z,99.90
2022-08-12T16:45:24.474Z,99.90
2022-08-12T16:48:34.120Z,99.90
2022-08-12T16:51:03.595Z,99.90
2022-08-12T16:53:43.827Z,99.90
2022-08-12T16:56:18.533Z,99.90
2022-08-12T16:58:47.208Z,99.90
2022-08-12T17:01:15.719Z,99.90
2022-08-12T17:03:52.561Z,99.90
2022-08-12T17:06:27.265Z,99.90
2022-08-12T17:09:03.638Z,99.90
2022-08-12T17:11:38.851Z,99.90
2022-08-12T17:14:07.227Z,99.90
2022-08-12T17:16:38.064Z,99.90
2022-08-12T17:19:19.525Z,99.90
2022-08-12T17:22:01.656Z,99.90
2022-08-12T17:24:32.433Z,99.90
2022-08-12T17:27:09.515Z,99.90
2022-08-12T17:30:01.915Z,99.90
2022-08-12T17:32:36.761Z,99.90
2022-08-12T17:35:43.251Z,99.90
2022-08-12T17:38:18.488Z,99.90
2022-08-12T17:40:49.176Z,99.90
2022-08-12T17:43:56.981Z,99.90
2022-08-12T17:46:12.660Z,99.90
2022-08-12T17:48:55.540Z,99.90
2022-08-12T17:51:25.541Z,99.90
2022-08-12T17:54:11.499Z,99.90
2022-08-12T17:56:43.073Z,99.90
2022-08-12T17:59:12.235Z,99.90
2022-08-12T18:01:51.589Z,99.90
2022-08-12T18:04:23.302Z,99.90
2022-08-12T18:07:06.282Z,99.90
2022-08-12T18:09:36.845Z,99.90
2022-08-12T18:12:34.908Z,99.90
2022-08-12T18:15:26.846Z,99.90
2022-08-12T18:18:04.549Z,99.90
2022-08-12T18:20:36.431Z,99.90
2022-08-12T18:23:05.302Z,99.90
2022-08-12T18:26:12.573Z,99.90
2022-08-12T18:28:43.169Z,99.90
2022-08-12T18:31:19.299Z,99.90
2022-08-12T18:33:52.335Z,99.90
2022-08-12T18:36:23.395Z,99.90
2022-08-12T18:42:07.538Z,99.90
2022-08-12T18:48:42.029Z,99.90
2022-08-12T18:51:52.038Z,99.90
2022-08-12T18:54:52.308Z,99.90
2022-08-12T18:58:07.234Z,99.90
2022-08-12T19:00:22.214Z,99.90
2022-08-12T19:07:19.112Z,99.90
2022-08-12T19:14:21.313Z,99.90
2022-08-12T19:17:47.749Z,99.90
2022-08-12T19:24:23.372Z,99.90
2022-08-12T19:32:27.294Z,99.90
2022-08-12T19:38:04.130Z,99.90
2022-08-12T19:41:03.845Z,99.90
2022-08-12T19:43:41.056Z,99.90
2022-08-12T19:46:34.815Z,99.90
2022-08-12T19:49:05.891Z,99.90
2022-08-12T19:51:38.565Z,99.90
2022-08-12T19:54:13.422Z,99.90
2022-08-12T19:56:43.782Z,99.90
2022-08-12T19:59:43.515Z,99.90
2022-08-12T20:02:21.467Z,99.90
2022-08-12T20:06:05.995Z,99.90
2022-08-12T20:07:57.153Z,99.90
2022-08-12T20:12:14.575Z,99.90
2022-08-12T20:14:18.970Z,99.90
2022-08-12T20:17:02.653Z,99.90
2022-08-12T20:20:01.603Z,99.90
2022-08-12T20:22:39.274Z,99.90
2022-08-12T20:25:10.463Z,99.90
2022-08-12T20:28:04.061Z,99.90
2022-08-12T20:30:37.417Z,99.90
2022-08-12T20:33:18.703Z,99.90
2022-08-12T20:36:13.663Z,99.90
2022-08-12T20:38:39.776Z,99.90
2022-08-12T20:41:16.790Z,99.90
2022-08-12T20:43:49.855Z,99.90
2022-08-12T20:46:24.093Z,99.90
2022-08-12T20:49:14.338Z,99.90
2022-08-12T20:51:55.822Z,99.90
2022-08-12T20:54:32.871Z,99.90
2022-08-12T20:57:09.859Z,99.90
2022-08-12T20:59:48.055Z,99.90
2022-08-12T21:02:24.408Z,99.90
2022-08-12T21:05:19.591Z,99.90
2022-08-12T21:07:52.057Z,99.90
2022-08-12T21:10:20.779Z,99.90
2022-08-12T21:12:48.879Z,99.90
2022-08-12T21:15:30.389Z,99.90
2022-08-12T21:18:10.843Z,99.90
2022-08-12T21:21:00.213Z,99.90
2022-08-12T21:23:56.382Z,99.90
2022-08-12T21:26:24.301Z,99.90
2022-08-12T21:29:01.178Z,99.90
2022-08-12T21:32:46.824Z,99.90
2022-08-12T21:34:19.929Z,99.90
2022-08-12T21:36:50.383Z,99.90
2022-08-12T21:39:22.174Z,99.90
2022-08-12T21:42:00.427Z,99.90
2022-08-12T21:45:45.941Z,99.90
2022-08-12T21:47:26.073Z,99.90
2022-08-12T21:50:06.234Z,99.90
2022-08-12T21:52:42.203Z,99.90
2022-08-12T21:55:18.536Z,99.90
2022-08-12T21:57:53.013Z,99.90
2022-08-12T22:00:33.073Z,99.90
2022-08-12T22:04:02.662Z,99.90
2022-08-12T22:06:31.351Z,99.90
2022-08-12T22:09:16.394Z,99.90
2022-08-12T22:11:58.736Z,99.90
2022-08-12T22:14:28.957Z,99.90
2022-08-12T22:17:05.271Z,99.90
2022-08-12T22:19:35.238Z,99.90
2022-08-12T22:22:08.945Z,99.90
2022-08-12T22:24:39.739Z,99.90
2022-08-12T22:27:31.847Z,99.90
2022-08-12T22:30:19.593Z,99.90
2022-08-12T22:32:55.041Z,99.90
2022-08-12T22:35:55.698Z,99.90
2022-08-12T22:38:25.045Z,99.90
2022-08-12T22:41:01.821Z,99.90
2022-08-12T22:44:00.766Z,99.90
2022-08-12T22:46:52.715Z,99.90
2022-08-12T22:49:36.899Z,99.90
2022-08-12T22:52:18.677Z,99.90
2022-08-12T22:55:04.129Z,99.90
2022-08-12T22:57:49.340Z,99.90
2022-08-12T23:01:07.507Z,99.90
2022-08-12T23:03:49.299Z,99.90
2022-08-12T23:06:26.906Z,99.90
2022-08-12T23:08:55.132Z,99.90
2022-08-12T23:11:42.353Z,99.90
2022-08-12T23:14:18.033Z,99.90
2022-08-12T23:17:21.377Z,99.90
2022-08-12T23:20:27.563Z,99.90
2022-08-12T23:22:56.022Z,99.90
2022-08-12T23:29:30.150Z,99.90
2022-08-12T23:32:11.526Z,99.90
2022-08-12T23:34:38.796Z,99.90
2022-08-12T23:37:18.991Z,99.90
2022-08-12T23:40:15.226Z,99.90
2022-08-12T23:43:12.392Z,99.90
2022-08-12T23:45:39.890Z,99.90
2022-08-12T23:51:32.107Z,99.90
2022-08-12T23:54:44.107Z,99.90
2022-08-12T23:57:20.907Z,99.90
2022-08-12T23:59:55.495Z,99.90
